sensor_id;sensor_type;location;lat;lon;timestamp;P1;durP1;ratioP1;P2;durP2;ratioP2
7108;SDS011;29079;41.930;25.558;2024-01-25T00:02:45;119.10;;;60.13;;
7108;SDS011;29079;41.930;25.558;2024-01-25T00:05:34;118.25;;;61.70;;
7108;SDS011;29079;41.930;25.558;2024-01-25T00:08:23;118.57;;;59.80;;
7108;SDS011;29079;41.930;25.558;2024-01-25T00:11:11;121.97;;;61.83;;
7108;SDS011;29079;41.930;25.558;2024-01-25T00:13:58;110.38;;;57.33;;
7108;SDS011;29079;41.930;25.558;2024-01-25T00:16:46;134.23;;;64.50;;
7108;SDS011;29079;41.930;25.558;2024-01-25T00:19:34;135.10;;;65.50;;
7108;SDS011;29079;41.930;25.558;2024-01-25T00:22:24;128.45;;;67.00;;
7108;SDS011;29079;41.930;25.558;2024-01-25T00:25:12;129.57;;;61.13;;
7108;SDS011;29079;41.930;25.558;2024-01-25T00:28:00;131.40;;;64.03;;
7108;SDS011;29079;41.930;25.558;2024-01-25T00:30:48;118.03;;;62.03;;
7108;SDS011;29079;41.930;25.558;2024-01-25T00:33:36;117.43;;;62.25;;
7108;SDS011;29079;41.930;25.558;2024-01-25T00:36:24;121.55;;;60.22;;
7108;SDS011;29079;41.930;25.558;2024-01-25T00:39:14;123.57;;;60.50;;
7108;SDS011;29079;41.930;25.558;2024-01-25T00:42:03;123.57;;;59.53;;
7108;SDS011;29079;41.930;25.558;2024-01-25T00:44:53;107.65;;;56.17;;
7108;SDS011;29079;41.930;25.558;2024-01-25T00:47:41;113.45;;;57.85;;
7108;SDS011;29079;41.930;25.558;2024-01-25T00:50:30;126.43;;;56.85;;
7108;SDS011;29079;41.930;25.558;2024-01-25T00:53:18;106.07;;;56.33;;
7108;SDS011;29079;41.930;25.558;2024-01-25T00:56:09;93.47;;;51.83;;
7108;SDS011;29079;41.930;25.558;2024-01-25T00:58:58;96.15;;;52.90;;
7108;SDS011;29079;41.930;25.558;2024-01-25T01:01:47;111.53;;;56.42;;
7108;SDS011;29079;41.930;25.558;2024-01-25T01:04:36;97.40;;;52.40;;
7108;SDS011;29079;41.930;25.558;2024-01-25T01:07:33;100.97;;;52.85;;
7108;SDS011;29079;41.930;25.558;2024-01-25T01:10:22;101.70;;;52.28;;
7108;SDS011;29079;41.930;25.558;2024-01-25T01:13:11;99.00;;;51.13;;
7108;SDS011;29079;41.930;25.558;2024-01-25T01:15:59;96.35;;;51.47;;
7108;SDS011;29079;41.930;25.558;2024-01-25T01:18:47;96.05;;;50.72;;
7108;SDS011;29079;41.930;25.558;2024-01-25T01:21:35;89.50;;;47.38;;
7108;SDS011;29079;41.930;25.558;2024-01-25T01:24:25;100.90;;;52.60;;
7108;SDS011;29079;41.930;25.558;2024-01-25T01:27:13;97.95;;;51.88;;
7108;SDS011;29079;41.930;25.558;2024-01-25T01:30:02;110.20;;;54.72;;
7108;SDS011;29079;41.930;25.558;2024-01-25T01:32:50;101.35;;;54.72;;
7108;SDS011;29079;41.930;25.558;2024-01-25T01:35:38;108.07;;;53.03;;
7108;SDS011;29079;41.930;25.558;2024-01-25T01:38:26;120.95;;;56.97;;
7108;SDS011;29079;41.930;25.558;2024-01-25T01:41:14;107.45;;;52.33;;
7108;SDS011;29079;41.930;25.558;2024-01-25T01:44:02;102.80;;;51.70;;
7108;SDS011;29079;41.930;25.558;2024-01-25T01:46:52;110.13;;;50.70;;
7108;SDS011;29079;41.930;25.558;2024-01-25T01:49:41;110.35;;;53.15;;
7108;SDS011;29079;41.930;25.558;2024-01-25T01:52:30;113.20;;;52.53;;
7108;SDS011;29079;41.930;25.558;2024-01-25T01:55:18;115.75;;;51.50;;
7108;SDS011;29079;41.930;25.558;2024-01-25T01:58:06;106.35;;;54.85;;
7108;SDS011;29079;41.930;25.558;2024-01-25T02:00:55;100.88;;;48.45;;
7108;SDS011;29079;41.930;25.558;2024-01-25T02:03:47;99.07;;;48.42;;
7108;SDS011;29079;41.930;25.558;2024-01-25T02:06:35;96.30;;;47.08;;
7108;SDS011;29079;41.930;25.558;2024-01-25T02:09:23;85.20;;;41.63;;
7108;SDS011;29079;41.930;25.558;2024-01-25T02:12:14;96.22;;;45.53;;
7108;SDS011;29079;41.930;25.558;2024-01-25T02:15:03;90.50;;;43.78;;
7108;SDS011;29079;41.930;25.558;2024-01-25T02:17:52;86.50;;;42.03;;
7108;SDS011;29079;41.930;25.558;2024-01-25T02:20:41;82.10;;;42.05;;
7108;SDS011;29079;41.930;25.558;2024-01-25T02:23:31;80.00;;;40.17;;
7108;SDS011;29079;41.930;25.558;2024-01-25T02:26:19;75.03;;;38.75;;
7108;SDS011;29079;41.930;25.558;2024-01-25T02:29:06;72.53;;;38.10;;
7108;SDS011;29079;41.930;25.558;2024-01-25T02:31:55;79.28;;;40.08;;
7108;SDS011;29079;41.930;25.558;2024-01-25T02:34:43;101.85;;;37.13;;
7108;SDS011;29079;41.930;25.558;2024-01-25T02:37:32;76.88;;;39.88;;
7108;SDS011;29079;41.930;25.558;2024-01-25T02:40:21;71.45;;;35.42;;
7108;SDS011;29079;41.930;25.558;2024-01-25T02:43:09;70.53;;;35.08;;
7108;SDS011;29079;41.930;25.558;2024-01-25T02:45:57;71.40;;;37.83;;
7108;SDS011;29079;41.930;25.558;2024-01-25T02:48:45;78.40;;;41.38;;
7108;SDS011;29079;41.930;25.558;2024-01-25T02:51:33;79.80;;;37.03;;
7108;SDS011;29079;41.930;25.558;2024-01-25T02:54:21;73.18;;;38.80;;
7108;SDS011;29079;41.930;25.558;2024-01-25T02:57:10;68.13;;;35.92;;
7108;SDS011;29079;41.930;25.558;2024-01-25T02:59:58;74.55;;;37.45;;
7108;SDS011;29079;41.930;25.558;2024-01-25T03:02:46;66.18;;;33.70;;
7108;SDS011;29079;41.930;25.558;2024-01-25T03:05:34;71.55;;;34.97;;
7108;SDS011;29079;41.930;25.558;2024-01-25T03:08:22;66.18;;;34.65;;
7108;SDS011;29079;41.930;25.558;2024-01-25T03:11:10;68.18;;;34.15;;
7108;SDS011;29079;41.930;25.558;2024-01-25T03:13:59;71.60;;;34.72;;
7108;SDS011;29079;41.930;25.558;2024-01-25T03:16:47;62.97;;;30.88;;
7108;SDS011;29079;41.930;25.558;2024-01-25T03:19:36;71.45;;;35.75;;
7108;SDS011;29079;41.930;25.558;2024-01-25T03:22:24;68.55;;;33.75;;
7108;SDS011;29079;41.930;25.558;2024-01-25T03:25:12;71.55;;;34.28;;
7108;SDS011;29079;41.930;25.558;2024-01-25T03:28:00;64.70;;;37.35;;
7108;SDS011;29079;41.930;25.558;2024-01-25T03:30:50;70.68;;;36.80;;
7108;SDS011;29079;41.930;25.558;2024-01-25T03:33:38;81.90;;;37.17;;
7108;SDS011;29079;41.930;25.558;2024-01-25T03:36:26;66.20;;;36.30;;
7108;SDS011;29079;41.930;25.558;2024-01-25T03:39:14;67.53;;;34.75;;
7108;SDS011;29079;41.930;25.558;2024-01-25T03:42:03;71.85;;;37.70;;
7108;SDS011;29079;41.930;25.558;2024-01-25T03:44:51;71.75;;;37.10;;
7108;SDS011;29079;41.930;25.558;2024-01-25T03:47:41;68.35;;;31.85;;
7108;SDS011;29079;41.930;25.558;2024-01-25T03:50:29;60.33;;;29.75;;
7108;SDS011;29079;41.930;25.558;2024-01-25T03:53:17;50.92;;;29.63;;
7108;SDS011;29079;41.930;25.558;2024-01-25T03:56:10;59.08;;;32.90;;
7108;SDS011;29079;41.930;25.558;2024-01-25T03:58:58;60.30;;;29.63;;
7108;SDS011;29079;41.930;25.558;2024-01-25T04:01:46;49.08;;;25.27;;
7108;SDS011;29079;41.930;25.558;2024-01-25T04:04:37;46.38;;;23.85;;
7108;SDS011;29079;41.930;25.558;2024-01-25T04:07:25;43.15;;;23.55;;
7108;SDS011;29079;41.930;25.558;2024-01-25T04:10:13;39.88;;;20.13;;
7108;SDS011;29079;41.930;25.558;2024-01-25T04:13:01;43.88;;;21.40;;
7108;SDS011;29079;41.930;25.558;2024-01-25T04:15:50;33.80;;;19.08;;
7108;SDS011;29079;41.930;25.558;2024-01-25T04:18:38;34.55;;;19.63;;
7108;SDS011;29079;41.930;25.558;2024-01-25T04:21:28;38.25;;;19.38;;
7108;SDS011;29079;41.930;25.558;2024-01-25T04:24:16;41.00;;;18.98;;
7108;SDS011;29079;41.930;25.558;2024-01-25T04:27:04;38.13;;;19.05;;
7108;SDS011;29079;41.930;25.558;2024-01-25T04:29:52;37.22;;;18.17;;
7108;SDS011;29079;41.930;25.558;2024-01-25T04:32:40;33.97;;;16.95;;
7108;SDS011;29079;41.930;25.558;2024-01-25T04:35:28;40.72;;;18.60;;
7108;SDS011;29079;41.930;25.558;2024-01-25T04:38:19;35.60;;;17.20;;
7108;SDS011;29079;41.930;25.558;2024-01-25T04:41:07;38.03;;;17.23;;
7108;SDS011;29079;41.930;25.558;2024-01-25T04:43:55;43.28;;;19.55;;
7108;SDS011;29079;41.930;25.558;2024-01-25T04:46:42;29.98;;;16.15;;
7108;SDS011;29079;41.930;25.558;2024-01-25T04:49:30;53.95;;;19.02;;
7108;SDS011;29079;41.930;25.558;2024-01-25T04:52:19;34.67;;;17.42;;
7108;SDS011;29079;41.930;25.558;2024-01-25T04:55:08;32.50;;;16.05;;
7108;SDS011;29079;41.930;25.558;2024-01-25T04:57:56;33.13;;;16.80;;
7108;SDS011;29079;41.930;25.558;2024-01-25T05:00:44;36.13;;;16.98;;
7108;SDS011;29079;41.930;25.558;2024-01-25T05:03:32;38.03;;;16.88;;
7108;SDS011;29079;41.930;25.558;2024-01-25T05:06:20;34.78;;;16.20;;
7108;SDS011;29079;41.930;25.558;2024-01-25T05:09:08;29.35;;;15.27;;
7108;SDS011;29079;41.930;25.558;2024-01-25T05:11:58;35.95;;;17.80;;
7108;SDS011;29079;41.930;25.558;2024-01-25T05:14:48;41.38;;;20.92;;
7108;SDS011;29079;41.930;25.558;2024-01-25T05:17:36;39.35;;;18.15;;
7108;SDS011;29079;41.930;25.558;2024-01-25T05:20:24;32.50;;;17.83;;
7108;SDS011;29079;41.930;25.558;2024-01-25T05:23:18;43.60;;;18.48;;
7108;SDS011;29079;41.930;25.558;2024-01-25T05:26:06;35.13;;;17.80;;
7108;SDS011;29079;41.930;25.558;2024-01-25T05:28:55;38.05;;;17.70;;
7108;SDS011;29079;41.930;25.558;2024-01-25T05:31:43;36.22;;;17.77;;
7108;SDS011;29079;41.930;25.558;2024-01-25T05:34:31;37.38;;;20.63;;
7108;SDS011;29079;41.930;25.558;2024-01-25T05:37:20;50.40;;;22.40;;
7108;SDS011;29079;41.930;25.558;2024-01-25T05:40:08;50.55;;;24.42;;
7108;SDS011;29079;41.930;25.558;2024-01-25T05:42:57;51.45;;;24.65;;
7108;SDS011;29079;41.930;25.558;2024-01-25T05:45:46;52.10;;;22.83;;
7108;SDS011;29079;41.930;25.558;2024-01-25T05:48:35;42.55;;;19.77;;
7108;SDS011;29079;41.930;25.558;2024-01-25T05:51:23;51.85;;;23.88;;
7108;SDS011;29079;41.930;25.558;2024-01-25T05:54:11;47.38;;;22.17;;
7108;SDS011;29079;41.930;25.558;2024-01-25T05:56:59;42.00;;;21.95;;
7108;SDS011;29079;41.930;25.558;2024-01-25T05:59:47;50.85;;;25.00;;
7108;SDS011;29079;41.930;25.558;2024-01-25T06:02:36;54.63;;;29.73;;
7108;SDS011;29079;41.930;25.558;2024-01-25T06:05:24;61.33;;;33.42;;
7108;SDS011;29079;41.930;25.558;2024-01-25T06:08:12;52.25;;;31.90;;
7108;SDS011;29079;41.930;25.558;2024-01-25T06:11:00;50.92;;;28.55;;
7108;SDS011;29079;41.930;25.558;2024-01-25T06:13:48;54.22;;;26.92;;
7108;SDS011;29079;41.930;25.558;2024-01-25T06:16:37;50.08;;;27.10;;
7108;SDS011;29079;41.930;25.558;2024-01-25T06:19:26;56.47;;;28.48;;
7108;SDS011;29079;41.930;25.558;2024-01-25T06:22:37;50.75;;;22.85;;
7108;SDS011;29079;41.930;25.558;2024-01-25T06:25:49;41.78;;;21.98;;
7108;SDS011;29079;41.930;25.558;2024-01-25T06:29:02;48.20;;;25.48;;
7108;SDS011;29079;41.930;25.558;2024-01-25T06:32:15;45.72;;;25.10;;
7108;SDS011;29079;41.930;25.558;2024-01-25T16:14:18;17.48;;;6.88;;
7108;SDS011;29079;41.930;25.558;2024-01-25T16:17:06;16.70;;;7.22;;
7108;SDS011;29079;41.930;25.558;2024-01-25T16:19:56;16.58;;;6.82;;
7108;SDS011;29079;41.930;25.558;2024-01-25T16:22:44;12.32;;;5.65;;
7108;SDS011;29079;41.930;25.558;2024-01-25T16:25:32;15.77;;;5.72;;
7108;SDS011;29079;41.930;25.558;2024-01-25T16:28:20;14.43;;;6.88;;
7108;SDS011;29079;41.930;25.558;2024-01-25T16:31:09;10.13;;;5.30;;
7108;SDS011;29079;41.930;25.558;2024-01-25T16:33:58;9.63;;;5.95;;
7108;SDS011;29079;41.930;25.558;2024-01-25T16:36:46;15.45;;;6.65;;
7108;SDS011;29079;41.930;25.558;2024-01-25T16:39:35;17.30;;;6.57;;
7108;SDS011;29079;41.930;25.558;2024-01-25T16:42:24;14.02;;;6.05;;
7108;SDS011;29079;41.930;25.558;2024-01-25T16:45:12;10.45;;;5.63;;
7108;SDS011;29079;41.930;25.558;2024-01-25T16:48:02;12.57;;;6.45;;
7108;SDS011;29079;41.930;25.558;2024-01-25T16:50:51;15.45;;;7.80;;
7108;SDS011;29079;41.930;25.558;2024-01-25T16:53:39;15.90;;;6.85;;
7108;SDS011;29079;41.930;25.558;2024-01-25T16:56:27;19.48;;;7.82;;
7108;SDS011;29079;41.930;25.558;2024-01-25T16:59:15;13.45;;;7.32;;
7108;SDS011;29079;41.930;25.558;2024-01-25T17:02:03;18.58;;;7.40;;
7108;SDS011;29079;41.930;25.558;2024-01-25T17:04:52;16.23;;;7.25;;
7108;SDS011;29079;41.930;25.558;2024-01-25T17:07:41;17.30;;;6.88;;
7108;SDS011;29079;41.930;25.558;2024-01-25T17:10:30;16.30;;;6.50;;
7108;SDS011;29079;41.930;25.558;2024-01-25T17:13:18;15.27;;;6.22;;
7108;SDS011;29079;41.930;25.558;2024-01-25T17:16:06;14.40;;;5.70;;
7108;SDS011;29079;41.930;25.558;2024-01-25T17:18:54;18.63;;;7.50;;
7108;SDS011;29079;41.930;25.558;2024-01-25T17:21:46;15.65;;;7.72;;
7108;SDS011;29079;41.930;25.558;2024-01-25T17:24:34;21.35;;;8.20;;
7108;SDS011;29079;41.930;25.558;2024-01-25T17:27:22;20.13;;;7.03;;
7108;SDS011;29079;41.930;25.558;2024-01-25T17:30:10;27.50;;;8.07;;
7108;SDS011;29079;41.930;25.558;2024-01-25T17:32:59;18.92;;;8.18;;
7108;SDS011;29079;41.930;25.558;2024-01-25T17:35:47;18.50;;;7.60;;
7108;SDS011;29079;41.930;25.558;2024-01-25T17:38:36;20.38;;;7.28;;
7108;SDS011;29079;41.930;25.558;2024-01-25T17:41:25;18.70;;;7.05;;
7108;SDS011;29079;41.930;25.558;2024-01-25T17:44:15;16.67;;;7.90;;
7108;SDS011;29079;41.930;25.558;2024-01-25T17:47:03;18.10;;;6.63;;
7108;SDS011;29079;41.930;25.558;2024-01-25T17:49:52;10.38;;;6.20;;
7108;SDS011;29079;41.930;25.558;2024-01-25T17:52:40;15.32;;;7.10;;
7108;SDS011;29079;41.930;25.558;2024-01-25T17:55:29;19.42;;;7.47;;
7108;SDS011;29079;41.930;25.558;2024-01-25T17:58:18;15.20;;;5.40;;
7108;SDS011;29079;41.930;25.558;2024-01-25T18:01:06;14.13;;;6.15;;
7108;SDS011;29079;41.930;25.558;2024-01-25T18:03:54;14.73;;;5.10;;
7108;SDS011;29079;41.930;25.558;2024-01-25T18:06:43;15.20;;;5.97;;
7108;SDS011;29079;41.930;25.558;2024-01-25T18:09:31;13.90;;;5.95;;
7108;SDS011;29079;41.930;25.558;2024-01-25T18:12:20;20.00;;;7.00;;
7108;SDS011;29079;41.930;25.558;2024-01-25T18:15:08;17.70;;;5.57;;
7108;SDS011;29079;41.930;25.558;2024-01-25T18:17:58;16.38;;;6.55;;
7108;SDS011;29079;41.930;25.558;2024-01-25T18:20:46;17.67;;;5.95;;
7108;SDS011;29079;41.930;25.558;2024-01-25T18:23:34;18.77;;;5.25;;
7108;SDS011;29079;41.930;25.558;2024-01-25T18:26:22;12.48;;;6.13;;
7108;SDS011;29079;41.930;25.558;2024-01-25T18:29:12;18.45;;;5.38;;
7108;SDS011;29079;41.930;25.558;2024-01-25T18:32:01;19.05;;;5.38;;
7108;SDS011;29079;41.930;25.558;2024-01-25T18:34:49;15.77;;;5.78;;
7108;SDS011;29079;41.930;25.558;2024-01-25T18:37:39;14.20;;;6.85;;
7108;SDS011;29079;41.930;25.558;2024-01-25T18:40:27;10.75;;;5.28;;
7108;SDS011;29079;41.930;25.558;2024-01-25T18:43:16;16.48;;;5.43;;
7108;SDS011;29079;41.930;25.558;2024-01-25T18:46:06;24.10;;;6.32;;
7108;SDS011;29079;41.930;25.558;2024-01-25T18:48:55;14.70;;;5.57;;
7108;SDS011;29079;41.930;25.558;2024-01-25T18:51:43;12.65;;;4.90;;
7108;SDS011;29079;41.930;25.558;2024-01-25T18:54:31;11.50;;;5.82;;
7108;SDS011;29079;41.930;25.558;2024-01-25T18:57:20;13.30;;;4.82;;
7108;SDS011;29079;41.930;25.558;2024-01-25T19:00:11;13.52;;;5.32;;
7108;SDS011;29079;41.930;25.558;2024-01-25T19:03:02;10.73;;;4.43;;
7108;SDS011;29079;41.930;25.558;2024-01-25T19:05:51;10.93;;;5.47;;
7108;SDS011;29079;41.930;25.558;2024-01-25T19:08:42;15.27;;;5.05;;
7108;SDS011;29079;41.930;25.558;2024-01-25T19:11:31;12.00;;;6.60;;
7108;SDS011;29079;41.930;25.558;2024-01-25T19:14:19;18.58;;;7.93;;
7108;SDS011;29079;41.930;25.558;2024-01-25T19:17:07;18.88;;;7.65;;
7108;SDS011;29079;41.930;25.558;2024-01-25T19:19:57;12.38;;;5.32;;
7108;SDS011;29079;41.930;25.558;2024-01-25T19:22:45;10.88;;;5.82;;
7108;SDS011;29079;41.930;25.558;2024-01-25T19:25:33;12.20;;;5.57;;
7108;SDS011;29079;41.930;25.558;2024-01-25T19:28:21;15.48;;;5.60;;
7108;SDS011;29079;41.930;25.558;2024-01-25T19:31:09;22.25;;;6.07;;
7108;SDS011;29079;41.930;25.558;2024-01-25T19:33:58;12.02;;;5.43;;
7108;SDS011;29079;41.930;25.558;2024-01-25T19:36:48;8.05;;;4.90;;
7108;SDS011;29079;41.930;25.558;2024-01-25T19:39:36;12.95;;;5.68;;
7108;SDS011;29079;41.930;25.558;2024-01-25T19:42:25;12.95;;;5.60;;
7108;SDS011;29079;41.930;25.558;2024-01-25T19:45:13;8.63;;;5.00;;
7108;SDS011;29079;41.930;25.558;2024-01-25T19:48:01;14.43;;;5.45;;
7108;SDS011;29079;41.930;25.558;2024-01-25T19:50:49;9.20;;;4.85;;
7108;SDS011;29079;41.930;25.558;2024-01-25T19:53:38;12.63;;;4.72;;
7108;SDS011;29079;41.930;25.558;2024-01-25T19:56:26;8.43;;;5.03;;
7108;SDS011;29079;41.930;25.558;2024-01-25T19:59:14;14.18;;;5.07;;
7108;SDS011;29079;41.930;25.558;2024-01-25T20:02:05;6.03;;;3.92;;
7108;SDS011;29079;41.930;25.558;2024-01-25T20:04:53;8.40;;;4.88;;
7108;SDS011;29079;41.930;25.558;2024-01-25T20:07:42;12.55;;;5.25;;
7108;SDS011;29079;41.930;25.558;2024-01-25T20:10:32;10.35;;;4.78;;
7108;SDS011;29079;41.930;25.558;2024-01-25T20:13:20;10.82;;;4.63;;
7108;SDS011;29079;41.930;25.558;2024-01-25T20:16:07;14.10;;;5.15;;
7108;SDS011;29079;41.930;25.558;2024-01-25T20:18:56;13.57;;;6.13;;
7108;SDS011;29079;41.930;25.558;2024-01-25T20:21:44;15.13;;;5.75;;
7108;SDS011;29079;41.930;25.558;2024-01-25T20:24:33;11.80;;;5.88;;
7108;SDS011;29079;41.930;25.558;2024-01-25T20:27:23;13.23;;;5.95;;
7108;SDS011;29079;41.930;25.558;2024-01-25T20:30:11;12.38;;;6.43;;
7108;SDS011;29079;41.930;25.558;2024-01-25T20:33:00;9.27;;;5.65;;
7108;SDS011;29079;41.930;25.558;2024-01-25T20:35:48;11.90;;;6.10;;
7108;SDS011;29079;41.930;25.558;2024-01-25T20:38:36;10.15;;;4.97;;
7108;SDS011;29079;41.930;25.558;2024-01-25T20:41:24;17.73;;;5.63;;
7108;SDS011;29079;41.930;25.558;2024-01-25T20:44:13;11.88;;;5.00;;
7108;SDS011;29079;41.930;25.558;2024-01-25T20:47:01;14.65;;;6.28;;
7108;SDS011;29079;41.930;25.558;2024-01-25T20:49:49;14.25;;;7.22;;
7108;SDS011;29079;41.930;25.558;2024-01-25T20:52:37;9.65;;;5.90;;
7108;SDS011;29079;41.930;25.558;2024-01-25T20:55:25;8.05;;;5.50;;
7108;SDS011;29079;41.930;25.558;2024-01-25T20:58:13;11.25;;;5.18;;
7108;SDS011;29079;41.930;25.558;2024-01-25T21:01:02;11.32;;;4.80;;
7108;SDS011;29079;41.930;25.558;2024-01-25T21:03:52;10.98;;;4.78;;
7108;SDS011;29079;41.930;25.558;2024-01-25T21:06:40;14.02;;;5.32;;
7108;SDS011;29079;41.930;25.558;2024-01-25T21:09:29;15.52;;;5.63;;
7108;SDS011;29079;41.930;25.558;2024-01-25T21:12:18;8.80;;;4.85;;
7108;SDS011;29079;41.930;25.558;2024-01-25T21:15:07;16.90;;;5.78;;
7108;SDS011;29079;41.930;25.558;2024-01-25T21:17:58;16.45;;;6.03;;
7108;SDS011;29079;41.930;25.558;2024-01-25T21:20:46;14.48;;;5.35;;
7108;SDS011;29079;41.930;25.558;2024-01-25T21:23:34;11.25;;;5.00;;
7108;SDS011;29079;41.930;25.558;2024-01-25T21:26:22;11.63;;;5.80;;
7108;SDS011;29079;41.930;25.558;2024-01-25T21:29:11;9.65;;;5.03;;
7108;SDS011;29079;41.930;25.558;2024-01-25T21:31:59;11.63;;;5.07;;
7108;SDS011;29079;41.930;25.558;2024-01-25T21:34:48;8.70;;;4.43;;
7108;SDS011;29079;41.930;25.558;2024-01-25T21:37:37;13.52;;;6.18;;
7108;SDS011;29079;41.930;25.558;2024-01-25T21:40:25;11.23;;;6.32;;
7108;SDS011;29079;41.930;25.558;2024-01-25T21:43:13;11.65;;;5.60;;
7108;SDS011;29079;41.930;25.558;2024-01-25T21:46:02;16.52;;;6.65;;
7108;SDS011;29079;41.930;25.558;2024-01-25T21:48:50;13.02;;;5.40;;
7108;SDS011;29079;41.930;25.558;2024-01-25T21:51:42;9.05;;;4.13;;
7108;SDS011;29079;41.930;25.558;2024-01-25T21:54:31;13.98;;;4.70;;
7108;SDS011;29079;41.930;25.558;2024-01-25T21:57:19;11.13;;;5.07;;
7108;SDS011;29079;41.930;25.558;2024-01-25T22:00:08;13.00;;;5.32;;
7108;SDS011;29079;41.930;25.558;2024-01-25T22:02:57;7.47;;;3.55;;
7108;SDS011;29079;41.930;25.558;2024-01-25T22:05:46;9.32;;;3.95;;
7108;SDS011;29079;41.930;25.558;2024-01-25T22:08:35;9.73;;;4.68;;
7108;SDS011;29079;41.930;25.558;2024-01-25T22:11:23;15.52;;;4.18;;
7108;SDS011;29079;41.930;25.558;2024-01-25T22:14:11;9.40;;;3.63;;
7108;SDS011;29079;41.930;25.558;2024-01-25T22:16:59;12.32;;;4.25;;
7108;SDS011;29079;41.930;25.558;2024-01-25T22:19:47;10.45;;;4.43;;
7108;SDS011;29079;41.930;25.558;2024-01-25T22:22:35;10.80;;;4.68;;
7108;SDS011;29079;41.930;25.558;2024-01-25T22:25:24;13.40;;;4.05;;
7108;SDS011;29079;41.930;25.558;2024-01-25T22:28:13;15.50;;;5.05;;
7108;SDS011;29079;41.930;25.558;2024-01-25T22:31:02;9.75;;;3.97;;
7108;SDS011;29079;41.930;25.558;2024-01-25T22:33:53;8.57;;;4.07;;
7108;SDS011;29079;41.930;25.558;2024-01-25T22:36:41;9.27;;;4.05;;
7108;SDS011;29079;41.930;25.558;2024-01-25T22:39:29;6.70;;;3.60;;
7108;SDS011;29079;41.930;25.558;2024-01-25T22:42:18;11.25;;;4.03;;
7108;SDS011;29079;41.930;25.558;2024-01-25T22:45:06;10.38;;;3.58;;
7108;SDS011;29079;41.930;25.558;2024-01-25T22:47:55;9.82;;;4.45;;
7108;SDS011;29079;41.930;25.558;2024-01-25T22:50:43;13.50;;;4.50;;
7108;SDS011;29079;41.930;25.558;2024-01-25T22:53:31;9.25;;;3.33;;
7108;SDS011;29079;41.930;25.558;2024-01-25T22:56:19;8.30;;;3.38;;
7108;SDS011;29079;41.930;25.558;2024-01-25T22:59:08;11.18;;;4.30;;
7108;SDS011;29079;41.930;25.558;2024-01-25T23:01:56;10.13;;;3.45;;
7108;SDS011;29079;41.930;25.558;2024-01-25T23:04:44;9.80;;;4.07;;
7108;SDS011;29079;41.930;25.558;2024-01-25T23:07:32;12.82;;;5.10;;
7108;SDS011;29079;41.930;25.558;2024-01-25T23:10:21;15.00;;;3.95;;
7108;SDS011;29079;41.930;25.558;2024-01-25T23:13:09;16.55;;;4.32;;
7108;SDS011;29079;41.930;25.558;2024-01-25T23:16:01;10.38;;;3.97;;
7108;SDS011;29079;41.930;25.558;2024-01-25T23:18:50;10.82;;;4.15;;
7108;SDS011;29079;41.930;25.558;2024-01-25T23:21:39;9.68;;;4.55;;
7108;SDS011;29079;41.930;25.558;2024-01-25T23:24:27;10.45;;;4.78;;
7108;SDS011;29079;41.930;25.558;2024-01-25T23:27:14;11.85;;;3.58;;
7108;SDS011;29079;41.930;25.558;2024-01-25T23:30:03;11.38;;;4.03;;
7108;SDS011;29079;41.930;25.558;2024-01-25T23:32:53;17.08;;;4.85;;
7108;SDS011;29079;41.930;25.558;2024-01-25T23:35:41;13.43;;;3.97;;
7108;SDS011;29079;41.930;25.558;2024-01-25T23:38:29;9.05;;;4.55;;
7108;SDS011;29079;41.930;25.558;2024-01-25T23:41:17;9.13;;;4.22;;
7108;SDS011;29079;41.930;25.558;2024-01-25T23:44:07;12.80;;;4.38;;
7108;SDS011;29079;41.930;25.558;2024-01-25T23:46:56;12.95;;;4.20;;
7108;SDS011;29079;41.930;25.558;2024-01-25T23:49:45;8.50;;;3.97;;
7108;SDS011;29079;41.930;25.558;2024-01-25T23:52:34;12.77;;;3.47;;
7108;SDS011;29079;41.930;25.558;2024-01-25T23:55:22;10.90;;;4.07;;
7108;SDS011;29079;41.930;25.558;2024-01-25T23:58:10;11.23;;;3.88;;
